Century City, California
Current Conditions -  °F | °C
As of 11:51 AM on Monday 26 Jan 2015 (Local Time) from KSMO Reporting Station
Clear Clear  
Wind Chill: 78°   Ceiling: Unl
Heat Index: 78°   Visibility: 10mi
Dew Point: 32°   Wind: 7mph
Humidity: 19%   Direction: 120°ESE
Pressure: 30"   Gusts: NA
Location:  34.0574°N, 118.414°W
Report Text: KSMO 261951Z 12006KT 10SM CLR 26/00 A3000 RMK AO2 SLP156 T02560000
Loading
Personal Weather Stations






























Interactive Weather Map New forecast layout! Learn more

10-Day Weather Forecast

Advertisements
Track Severe Weather on mobile